Time;durP1;ratioP1;P1;durP2;ratioP2;P2;SDS_P1;SDS_P2;PMS_P1;PMS_P2;Temp;Humidity;BMP_temperature;BMP_pressure;BME280_temperature;BME280_humidity;BME280_pressure;Samples;Min_cycle;Max_cycle;Signal;HPM_P1;HPM_P2
2021/12/15 00:01:28;;;;;;;89.53;39.13;;;;;;;4.23;89.69;100160.10;1778682;80;21065;-54
2021/12/15 00:03:55;;;;;;;83.33;40.47;;;;;;;4.20;89.71;100148.42;1772213;80;21472;-57
2021/12/15 00:06:21;;;;;;;83.43;38.53;;;;;;;4.26;89.74;100154.86;1779504;80;21707;-56
2021/12/15 00:08:52;;;;;;;91.45;40.85;;;;;;;4.31;89.63;100151.74;1784289;80;21031;-53
2021/12/15 00:11:19;;;;;;;81.60;37.93;;;;;;;4.31;89.46;100157.38;1781209;80;21566;-53
2021/12/15 00:13:47;;;;;;;86.95;40.65;;;;;;;4.32;89.34;100157.80;1770816;80;21511;-56
2021/12/15 00:16:15;;;;;;;95.45;42.08;;;;;;;4.28;89.50;100163.50;1762017;80;21053;-57
2021/12/15 00:18:44;;;;;;;91.22;39.60;;;;;;;4.29;89.60;100163.05;1789391;80;20991;-53
2021/12/15 00:21:14;;;;;;;82.27;39.30;;;;;;;4.33;89.56;100162.99;1770461;80;21010;-53
2021/12/15 00:23:44;;;;;;;86.22;40.05;;;;;;;4.33;89.53;100166.90;1784491;80;21005;-54
2021/12/15 00:26:10;;;;;;;88.85;39.85;;;;;;;4.36;89.51;100164.22;1789832;80;21014;-53
2021/12/15 00:28:37;;;;;;;85.12;39.35;;;;;;;4.36;89.38;100164.67;1771086;80;21033;-54
2021/12/15 00:31:04;;;;;;;91.75;41.02;;;;;;;4.39;89.28;100160.73;1774416;80;21492;-56
2021/12/15 00:33:30;;;;;;;;;;;;;;;4.39;89.24;100165.48;1781996;80;21013;-57
2021/12/15 00:35:56;;;;;;;87.33;40.12;;;;;;;4.30;89.13;100169.54;1779529;80;20440;-55
2021/12/15 00:38:23;;;;;;;90.47;41.77;;;;;;;4.35;89.22;100160.37;1784244;80;21050;-56
2021/12/15 00:40:49;;;;;;;87.70;40.03;;;;;;;4.35;89.34;100159.91;1780239;80;21019;-52
2021/12/15 00:43:16;;;;;;;85.30;40.43;;;;;;;4.33;89.33;100153.88;1773968;80;21057;-53
2021/12/15 00:45:43;;;;;;;87.45;39.75;;;;;;;4.36;89.14;100156.86;1784320;80;21050;-57
2021/12/15 00:48:09;;;;;;;88.47;41.45;;;;;;;4.32;89.35;100157.35;1781650;80;21019;-56
2021/12/15 00:50:35;;;;;;;112.52;44.90;;;;;;;4.33;89.46;100158.20;1774564;80;21023;-56
2021/12/15 00:53:03;;;;;;;98.55;43.85;;;;;;;4.33;89.53;100155.59;1775420;80;21066;-56
2021/12/15 00:55:30;;;;;;;91.42;44.30;;;;;;;4.38;89.55;100157.69;1785330;80;20983;-56
2021/12/15 00:57:57;;;;;;;;;;;;;;;4.33;89.69;100166.02;1787566;80;21019;-57
2021/12/15 01:00:28;;;;;;;111.77;44.85;;;;;;;4.22;90.08;100163.57;1773777;80;20104;-56
2021/12/15 01:02:56;;;;;;;106.75;42.58;;;;;;;4.19;90.27;100159.28;1788509;80;21067;-57
2021/12/15 01:05:27;;;;;;;126.87;46.53;;;;;;;4.21;89.68;100157.97;1788525;80;21003;-56
2021/12/15 01:07:54;;;;;;;114.45;44.60;;;;;;;4.10;90.12;100160.73;1772200;80;21045;-57
2021/12/15 01:10:28;;;;;;;119.90;45.17;;;;;;;4.14;90.12;100171.95;1778407;80;21014;-54
2021/12/15 01:14:32;;;;;;;94.37;44.55;;;;;;;4.11;90.60;100168.97;1789171;80;21113;-57
2021/12/15 01:20:56;;;;;;;95.12;43.35;;;;;;;4.15;91.30;100174.55;1779477;80;21081;-56
2021/12/15 01:23:26;;;;;;;90.40;43.15;;;;;;;4.19;91.17;100174.91;1775065;80;21496;-55
2021/12/15 01:26:09;;;;;;;91.87;44.30;;;;;;;4.22;91.12;100177.89;1779966;80;21050;-53
2021/12/15 01:28:37;;;;;;;96.78;43.17;;;;;;;4.26;91.23;100183.91;1778945;80;21019;-56
2021/12/15 01:31:07;;;;;;;96.60;43.58;;;;;;;4.30;91.40;100191.67;1788985;80;21031;-53
2021/12/15 01:33:36;;;;;;;90.35;41.37;;;;;;;4.35;90.96;100185.11;1785530;80;21531;-57
2021/12/15 01:36:05;;;;;;;86.67;41.42;;;;;;;4.37;91.10;100184.19;1773763;80;21543;-56
2021/12/15 01:38:33;;;;;;;91.72;42.83;;;;;;;4.40;91.10;100188.05;1761510;80;21041;-53
2021/12/15 01:41:01;;;;;;;87.05;42.65;;;;;;;4.43;90.99;100190.59;1761691;80;21076;-55
2021/12/15 01:43:49;;;;;;;89.37;40.78;;;;;;;4.45;90.99;100189.27;1783954;80;20991;-56
2021/12/15 01:49:02;;;;;;;89.17;43.20;;;;;;;4.51;91.10;100194.81;1773756;80;20998;-54
2021/12/15 01:51:28;;;;;;;91.72;42.05;;;;;;;4.51;90.89;100196.12;1765342;80;21089;-54
2021/12/15 01:53:55;;;;;;;90.47;43.02;;;;;;;4.52;90.88;100192.19;1775157;80;20974;-52
2021/12/15 01:56:21;;;;;;;84.70;41.95;;;;;;;4.55;90.77;100192.60;1775110;80;21015;-53
2021/12/15 01:58:47;;;;;;;90.65;42.35;;;;;;;4.59;90.75;100193.81;1766347;80;20974;-53
2021/12/15 02:01:13;;;;;;;93.17;42.30;;;;;;;4.64;90.59;100190.27;1761522;80;20998;-55
2021/12/15 02:03:40;;;;;;;87.72;40.60;;;;;;;4.67;90.50;100201.50;1766011;80;21041;-53
2021/12/15 02:06:08;;;;;;;85.97;42.30;;;;;;;4.66;90.35;100204.13;1765979;80;21002;-55
2021/12/15 02:08:35;;;;;;;85.55;41.18;;;;;;;4.66;90.33;100196.30;1770660;80;20999;-55
2021/12/15 02:11:01;;;;;;;86.80;40.10;;;;;;;4.70;90.41;100203.21;1766040;80;21058;-50
2021/12/15 02:13:27;;;;;;;83.10;40.95;;;;;;;4.70;90.41;100209.27;1765861;80;21017;-52
2021/12/15 02:15:57;;;;;;;88.05;40.73;;;;;;;4.75;90.27;100206.61;1772482;80;20981;-56
2021/12/15 02:18:28;;;;;;;86.32;41.25;;;;;;;4.74;90.08;100210.08;1770850;80;21029;-54
2021/12/15 02:21:02;;;;;;;85.50;39.48;;;;;;;4.76;90.11;100207.00;1775696;80;20982;-53
2021/12/15 02:23:36;;;;;;;86.90;39.70;;;;;;;4.74;90.18;100199.20;1762935;80;20979;-57
2021/12/15 02:26:04;;;;;;;88.25;40.15;;;;;;;4.75;90.13;100205.30;1788107;80;21018;-53
2021/12/15 02:28:30;;;;;;;85.32;41.23;;;;;;;4.71;90.03;100208.41;1784025;80;21022;-55
2021/12/15 02:31:10;;;;;;;92.05;41.60;;;;;;;4.72;90.07;100210.55;1766652;80;21042;-55
2021/12/15 02:38:47;;;;;;;83.20;39.55;;;;;;;4.73;90.13;100217.05;1770634;80;20998;-52
2021/12/15 02:41:23;;;;;;;;;;;;;;;4.75;90.30;100213.12;1749728;77;21099;-56
2021/12/15 02:43:53;;;;;;;83.62;40.03;;;;;;;4.75;90.13;100222.23;1709148;82;20160;-54
2021/12/15 02:46:20;;;;;;;81.02;38.58;;;;;;;4.75;89.95;100221.78;1713259;83;21413;-54
2021/12/15 02:48:47;;;;;;;80.38;39.88;;;;;;;4.77;90.07;100220.47;1716959;82;21022;-54
2021/12/15 02:51:13;;;;;;;77.10;38.53;;;;;;;4.69;89.85;100225.78;1718804;83;21006;-54
2021/12/15 02:53:39;;;;;;;77.37;38.48;;;;;;;4.68;89.89;100218.02;1719744;82;21071;-55
2021/12/15 02:56:07;;;;;;;77.03;36.83;;;;;;;4.69;90.20;100219.72;1719984;82;21511;-55
2021/12/15 02:58:35;;;;;;;81.72;38.88;;;;;;;4.70;90.10;100224.05;1715381;82;21614;-55
2021/12/15 03:01:13;;;;;;;81.60;39.08;;;;;;;4.68;90.28;100224.52;1707350;82;21054;-56
2021/12/15 03:06:12;;;;;;;76.70;35.88;;;;;;;4.70;90.37;100232.72;1714941;82;21054;-56
2021/12/15 03:16:34;;;;;;;73.40;36.77;;;;;;;4.65;90.37;100231.08;1707050;83;21472;-55
2021/12/15 03:19:00;;;;;;;77.32;34.95;;;;;;;4.65;90.58;100233.69;1718777;83;21495;-52
2021/12/15 03:21:27;;;;;;;80.42;35.90;;;;;;;4.59;90.72;100236.80;1718596;82;21011;-54
2021/12/15 03:24:13;;;;;;;86.55;36.50;;;;;;;4.58;90.58;100239.42;1716166;83;21476;-54
2021/12/15 03:26:47;;;;;;;81.97;36.28;;;;;;;4.58;90.34;100237.70;1716118;83;21058;-56
2021/12/15 03:35:00;;;;;;;82.67;37.67;;;;;;;4.50;90.69;100242.16;1714194;82;20991;-53
2021/12/15 03:37:25;;;;;;;78.65;37.73;;;;;;;4.48;90.65;100241.32;1717643;82;21095;-55
2021/12/15 03:39:48;;;;;;;77.17;35.23;;;;;;;4.47;90.51;100243.94;1716239;83;21027;-56
2021/12/15 03:42:19;;;;;;;74.53;36.33;;;;;;;4.48;90.33;100241.32;1720256;82;21017;-53
2021/12/15 03:44:48;;;;;;;77.67;36.35;;;;;;;4.45;90.62;100238.75;1720572;82;21515;-55
2021/12/15 03:47:22;;;;;;;79.65;36.13;;;;;;;4.50;90.79;100242.60;1718136;82;21062;-52
2021/12/15 03:49:49;;;;;;;79.95;37.50;;;;;;;4.50;90.49;100246.06;1715926;83;20994;-55
2021/12/15 03:52:15;;;;;;;75.80;35.15;;;;;;;4.50;90.60;100240.84;1716748;83;21042;-55
2021/12/15 03:54:42;;;;;;;69.42;32.58;;;;;;;4.58;90.47;100245.94;1715752;83;20991;-53
2021/12/15 03:57:08;;;;;;;71.87;33.53;;;;;;;4.55;90.64;100237.73;1716747;82;20999;-54
2021/12/15 03:59:35;;;;;;;71.77;34.33;;;;;;;4.61;90.65;100244.14;1713944;83;21047;-54
2021/12/15 04:02:01;;;;;;;68.85;33.40;;;;;;;4.64;90.58;100237.16;1717202;82;21002;-54
2021/12/15 04:04:27;;;;;;;72.45;33.55;;;;;;;4.65;90.53;100231.93;1715049;83;21018;-56
2021/12/15 04:06:53;;;;;;;66.42;32.53;;;;;;;4.65;90.37;100241.50;1719596;82;21014;-52
2021/12/15 04:09:19;;;;;;;71.82;33.02;;;;;;;4.66;90.23;100236.69;1719849;82;21007;-54
2021/12/15 04:11:46;;;;;;;70.42;32.75;;;;;;;4.63;90.31;100234.16;1714786;83;21014;-54
2021/12/15 04:14:21;;;;;;;66.25;31.25;;;;;;;4.70;90.24;100239.69;1716387;82;22132;-55
2021/12/15 04:17:00;;;;;;;69.07;33.88;;;;;;;4.72;90.37;100243.13;1719725;82;21021;-54
2021/12/15 04:19:21;;;;;;;72.40;32.45;;;;;;;4.70;90.12;100230.56;1713306;83;21532;-54
2021/12/15 04:21:48;;;;;;;67.85;32.90;;;;;;;4.67;90.23;100239.73;1715308;82;20983;-53
2021/12/15 04:24:16;;;;;;;64.03;31.75;;;;;;;4.71;90.34;100240.09;1717556;83;21480;-55
2021/12/15 04:26:45;;;;;;;68.70;32.98;;;;;;;4.72;90.21;100243.13;1717910;83;22664;-55
2021/12/15 04:29:11;;;;;;;63.30;31.65;;;;;;;4.75;90.13;100241.78;1718500;82;21050;-54
2021/12/15 04:31:42;;;;;;;65.35;31.23;;;;;;;4.73;90.12;100248.73;1717135;83;20995;-56
2021/12/15 04:34:12;;;;;;;68.60;32.33;;;;;;;4.72;90.14;100252.25;1710824;82;21023;-54
2021/12/15 04:36:43;;;;;;;63.92;32.40;;;;;;;4.70;90.05;100252.27;1713936;82;21006;-57
2021/12/15 04:39:14;;;;;;;68.25;33.88;;;;;;;4.70;90.10;100263.14;1715111;83;21615;-56
2021/12/15 04:41:46;;;;;;;73.85;33.67;;;;;;;4.67;90.10;100255.36;1712887;82;21022;-56
2021/12/15 04:44:10;;;;;;;65.25;32.48;;;;;;;4.64;90.13;100258.00;1713673;83;21010;-55
2021/12/15 04:46:43;;;;;;;71.00;32.80;;;;;;;4.66;90.01;100252.32;1717969;82;20972;-55
2021/12/15 04:49:13;;;;;;;78.05;34.65;;;;;;;4.68;90.08;100252.73;1717825;82;21019;-52
2021/12/15 04:51:39;;;;;;;73.05;34.30;;;;;;;4.67;90.04;100251.45;1717906;82;21122;-55
2021/12/15 04:54:06;;;;;;;72.27;33.02;;;;;;;4.68;90.08;100253.19;1717030;82;21062;-55
2021/12/15 04:56:32;;;;;;;66.90;32.95;;;;;;;4.66;90.20;100254.51;1720913;82;21040;-53
2021/12/15 04:58:58;;;;;;;77.20;35.25;;;;;;;4.66;90.23;100255.81;1715666;83;21027;-55
2021/12/15 05:01:25;;;;;;;70.37;34.25;;;;;;;4.70;90.18;100261.38;1716273;83;21007;-54
2021/12/15 05:03:51;;;;;;;76.67;34.80;;;;;;;4.65;90.34;100261.89;1716162;82;21010;-55
2021/12/15 05:06:17;;;;;;;71.47;34.27;;;;;;;4.69;90.36;100259.65;1718379;83;20991;-56
2021/12/15 05:08:43;;;;;;;70.85;33.48;;;;;;;4.69;90.49;100256.19;1715965;82;21022;-58
2021/12/15 05:11:11;;;;;;;73.67;32.23;;;;;;;4.73;90.39;100260.05;1717712;82;21010;-53
2021/12/15 05:13:37;;;;;;;;;;;;;;;4.77;90.30;100262.16;1721695;82;21011;-52
2021/12/15 05:16:04;;;;;;;60.45;32.28;;;;;;;4.73;90.07;100259.16;1716012;82;20178;-55
2021/12/15 05:18:31;;;;;;;64.80;32.95;;;;;;;4.71;90.38;100264.42;1716285;83;21048;-52
2021/12/15 05:20:59;;;;;;;65.37;31.95;;;;;;;4.72;90.33;100263.97;1715350;83;21078;-50
2021/12/15 05:23:30;;;;;;;65.95;30.88;;;;;;;4.74;90.28;100262.20;1719299;82;21062;-56
2021/12/15 05:25:54;;;;;;;71.60;32.08;;;;;;;4.75;90.28;100263.48;1719116;83;21007;-56
2021/12/15 05:28:20;;;;;;;69.72;33.98;;;;;;;4.77;90.30;100273.43;1716297;83;21499;-56
2021/12/15 05:30:47;;;;;;;74.50;33.58;;;;;;;4.81;90.26;100272.49;1717984;82;22159;-56
2021/12/15 05:33:13;;;;;;;84.52;38.28;;;;;;;4.80;90.43;100269.91;1718851;83;21523;-55
2021/12/15 05:35:39;;;;;;;69.40;34.18;;;;;;;4.81;90.55;100272.94;1714445;82;21610;-55
2021/12/15 05:38:08;;;;;;;73.90;32.95;;;;;;;4.82;90.57;100282.50;1716356;83;20984;-53
2021/12/15 05:40:35;;;;;;;70.62;34.80;;;;;;;4.80;90.33;100279.91;1720829;82;21029;-55
2021/12/15 05:43:05;;;;;;;64.32;32.38;;;;;;;4.81;90.42;100287.27;1715530;83;21123;-55
2021/12/15 05:45:34;;;;;;;72.60;33.00;;;;;;;4.86;90.33;100287.19;1716243;82;21484;-54
2021/12/15 05:48:01;;;;;;;65.95;32.88;;;;;;;4.84;90.42;100287.23;1720549;82;21002;-53
2021/12/15 05:50:29;;;;;;;69.47;32.33;;;;;;;4.87;90.42;100280.66;1715409;83;21022;-55
2021/12/15 05:52:57;;;;;;;70.95;32.25;;;;;;;4.87;90.25;100288.92;1719102;82;21089;-54
2021/12/15 05:55:23;;;;;;;69.00;33.85;;;;;;;4.85;90.38;100290.24;1714971;83;21053;-55
2021/12/15 05:57:50;;;;;;;72.82;33.13;;;;;;;4.84;90.14;100284.63;1717544;82;21010;-56
2021/12/15 06:00:25;;;;;;;93.75;42.35;;;;;;;4.85;90.28;100286.34;1716888;83;21027;-53
2021/12/15 06:02:53;;;;;;;78.47;34.33;;;;;;;4.81;90.43;100275.55;1718384;82;21072;-54
2021/12/15 06:05:19;;;;;;;81.57;34.33;;;;;;;4.78;90.43;100280.80;1715335;83;20979;-55
2021/12/15 06:07:47;;;;;;;94.42;35.63;;;;;;;4.78;90.65;100286.01;1715794;82;21507;-55
2021/12/15 06:10:19;;;;;;;85.85;35.17;;;;;;;4.79;90.60;100281.23;1713544;83;21113;-56
2021/12/15 06:12:48;;;;;;;106.20;31.55;;;;;;;4.74;90.77;100279.98;1682805;84;21148;-56
2021/12/15 06:15:21;;;;;;;100.15;33.67;;;;;;;4.78;90.62;100282.10;1678463;83;21071;-54
2021/12/15 06:17:43;;;;;;;95.85;33.45;;;;;;;4.72;90.73;100284.81;1673745;85;21138;-56
2021/12/15 06:20:09;;;;;;;106.25;32.33;;;;;;;4.67;90.80;100282.72;1677571;84;21016;-55
2021/12/15 06:22:37;;;;;;;113.08;32.70;;;;;;;4.66;90.72;100288.80;1673423;85;21121;-55
2021/12/15 06:25:03;;;;;;;74.77;33.02;;;;;;;4.66;90.89;100290.10;1672649;83;21007;-54
2021/12/15 06:27:30;;;;;;;71.75;33.63;;;;;;;4.65;91.04;100297.52;1670740;84;21086;-54
2021/12/15 06:29:56;;;;;;;70.83;33.13;;;;;;;4.61;91.30;100298.86;1675273;84;21090;-53
2021/12/15 06:32:22;;;;;;;67.30;31.55;;;;;;;4.64;91.18;100292.75;1713825;83;21026;-56
2021/12/15 06:34:48;;;;;;;68.62;31.37;;;;;;;4.67;90.59;100295.74;1714377;83;20995;-56
2021/12/15 06:37:15;;;;;;;59.30;29.50;;;;;;;4.70;90.53;100297.02;1718120;83;21588;-53
2021/12/15 06:39:41;;;;;;;65.97;31.55;;;;;;;4.74;90.68;100311.70;1719722;82;21522;-56
2021/12/15 06:42:07;;;;;;;64.92;32.25;;;;;;;4.74;90.62;100315.61;1715219;83;21495;-57
2021/12/15 06:44:33;;;;;;;71.65;32.98;;;;;;;4.73;90.69;100309.55;1719242;83;21019;-54
2021/12/15 07:00:23;;;;;;;64.37;30.57;;;;;;;4.82;90.78;100341.13;1715757;83;21022;-56
2021/12/15 07:02:49;;;;;;;58.70;30.08;;;;;;;4.90;90.57;100338.41;1716212;82;21059;-52
2021/12/15 07:05:16;;;;;;;63.90;30.88;;;;;;;4.85;90.51;100344.97;1714123;83;21098;-55
2021/12/15 07:07:47;;;;;;;55.45;29.07;;;;;;;4.85;90.68;100350.64;1718616;83;21018;-55
2021/12/15 07:10:19;;;;;;;57.38;29.07;;;;;;;4.87;90.55;100360.14;1715803;83;21638;-55
2021/12/15 07:12:44;;;;;;;62.65;29.75;;;;;;;4.86;90.38;100358.44;1717863;83;20995;-53
2021/12/15 07:15:12;;;;;;;60.65;29.82;;;;;;;4.83;90.58;100362.84;1715587;83;21059;-57
2021/12/15 07:17:40;;;;;;;58.65;28.95;;;;;;;4.85;90.65;100368.88;1716994;83;21014;-58
2021/12/15 07:22:45;;;;;;;54.55;28.12;;;;;;;4.93;90.58;100366.59;1699145;82;21039;-54
2021/12/15 07:25:14;;;;;;;56.10;28.73;;;;;;;4.88;90.40;100369.70;1717006;82;21023;-54
2021/12/15 07:27:41;;;;;;;66.50;29.63;;;;;;;4.87;90.49;100362.75;1712706;82;21495;-56
2021/12/15 07:30:09;;;;;;;57.93;28.25;;;;;;;4.87;90.70;100375.78;1714867;83;21493;-57
2021/12/15 07:32:36;;;;;;;62.53;28.60;;;;;;;4.94;90.61;100376.56;1717471;83;21569;-52
2021/12/15 07:35:03;;;;;;;63.83;29.30;;;;;;;4.93;90.54;100380.92;1717987;82;21499;-55
2021/12/15 07:37:29;;;;;;;64.00;29.67;;;;;;;4.95;90.63;100380.45;1714598;82;20992;-57
2021/12/15 07:39:58;;;;;;;55.45;27.37;;;;;;;4.96;90.76;100380.86;1718271;82;21054;-54
2021/12/15 07:42:32;;;;;;;;;;;;;;;5.02;90.62;100381.66;1719730;82;21015;-56
2021/12/15 07:44:51;;;;;;;58.25;28.38;;;;;;;4.97;90.40;100382.59;1715423;83;20507;-55
2021/12/15 07:47:17;;;;;;;55.23;27.75;;;;;;;5.04;90.43;100371.64;1714226;82;21114;-54
2021/12/15 07:49:42;;;;;;;57.53;27.10;;;;;;;5.04;90.39;100364.24;1716044;83;21023;-54
2021/12/15 07:52:08;;;;;;;61.68;29.45;;;;;;;5.05;90.35;100364.67;1719689;83;21595;-56
2021/12/15 07:54:36;;;;;;;67.58;29.72;;;;;;;5.06;90.27;100361.16;1716047;83;21524;-54
2021/12/15 07:57:10;;;;;;;83.60;33.63;;;;;;;5.09;90.33;100368.95;1720023;83;21464;-56
2021/12/15 07:59:36;;;;;;;69.87;30.85;;;;;;;5.04;90.33;100376.86;1716982;83;21061;-56
2021/12/15 08:02:05;;;;;;;66.10;30.25;;;;;;;5.01;90.61;100383.41;1713306;83;21039;-53
2021/12/15 08:04:31;;;;;;;78.60;28.57;;;;;;;4.99;90.65;100391.70;1715978;82;21476;-55
2021/12/15 08:06:56;;;;;;;70.62;29.00;;;;;;;5.00;90.66;100396.90;1721072;82;21017;-55
2021/12/15 08:09:22;;;;;;;68.95;29.60;;;;;;;5.03;90.49;100395.98;1717210;82;21015;-56
2021/12/15 08:11:50;;;;;;;60.92;29.20;;;;;;;4.99;90.69;100386.03;1716556;82;21520;-52
2021/12/15 08:14:16;;;;;;;64.65;29.60;;;;;;;4.96;90.92;100389.98;1717931;82;21492;-53
2021/12/15 08:16:42;;;;;;;61.88;29.05;;;;;;;4.95;91.11;100386.98;1710821;82;21006;-55
2021/12/15 08:19:09;;;;;;;61.95;28.92;;;;;;;4.95;91.22;100392.19;1715907;83;21488;-55
2021/12/15 08:21:37;;;;;;;58.63;29.02;;;;;;;4.99;91.06;100392.55;1714251;83;20995;-56
2021/12/15 08:24:04;;;;;;;63.02;27.98;;;;;;;5.02;90.91;100394.69;1715028;83;21093;-55
2021/12/15 08:26:29;;;;;;;57.67;28.12;;;;;;;5.03;90.81;100401.64;1716860;82;21634;-55
2021/12/15 08:28:55;;;;;;;55.70;26.90;;;;;;;5.06;90.90;100398.55;1715315;82;21465;-55
2021/12/15 08:31:21;;;;;;;54.35;26.48;;;;;;;5.09;90.83;100408.05;1717160;83;21547;-56
2021/12/15 08:33:48;;;;;;;50.95;25.80;;;;;;;5.11;90.87;100404.98;1718068;82;21047;-55
2021/12/15 08:36:15;;;;;;;49.77;24.63;;;;;;;5.16;90.81;100400.56;1716151;81;21010;-56
2021/12/15 08:38:43;;;;;;;52.50;25.23;;;;;;;5.16;90.89;100398.81;1718121;83;20999;-57
2021/12/15 08:41:15;;;;;;;51.90;23.67;;;;;;;5.23;90.69;100404.80;1713475;83;21018;-57
2021/12/15 08:43:41;;;;;;;44.80;22.73;;;;;;;5.27;90.54;100398.64;1720749;82;21022;-55
2021/12/15 08:46:15;;;;;;;40.78;20.48;;;;;;;5.29;90.41;100400.78;1718912;83;21076;-57
2021/12/15 08:48:42;;;;;;;41.75;21.62;;;;;;;5.34;90.38;100402.02;1685098;83;21032;-55
2021/12/15 08:51:12;;;;;;;44.77;21.55;;;;;;;5.34;90.31;100397.66;1694233;83;21129;-56
2021/12/15 08:53:41;;;;;;;44.00;20.82;;;;;;;5.37;90.16;100396.31;1700277;82;21072;-57
2021/12/15 08:56:08;;;;;;;46.68;22.30;;;;;;;5.43;90.06;100399.27;1686304;83;21512;-56
2021/12/15 08:58:35;;;;;;;36.77;19.27;;;;;;;5.46;89.95;100397.07;1676984;83;21493;-54
2021/12/15 09:01:02;;;;;;;;;;;;;;;5.50;89.80;100391.76;1683089;83;20996;-56
2021/12/15 09:03:28;;;;;;;41.70;19.48;;;;;;;5.46;89.63;100397.92;1690047;83;20176;-55
2021/12/15 09:05:57;;;;;;;34.40;18.42;;;;;;;5.47;89.62;100399.63;1703130;83;21146;-56
2021/12/15 09:08:25;;;;;;;34.73;18.75;;;;;;;5.52;89.60;100396.95;1689566;83;21021;-59
2021/12/15 09:10:54;;;;;;;42.05;20.12;;;;;;;5.51;89.46;100404.34;1698131;83;21067;-54
2021/12/15 09:13:21;;;;;;;38.67;19.85;;;;;;;5.50;89.49;100401.34;1678987;83;21084;-54
2021/12/15 09:15:47;;;;;;;;;;;;;;;5.49;89.53;100395.23;1701881;83;21586;-57
2021/12/15 09:18:15;;;;;;;47.83;20.75;;;;;;;5.45;89.58;100395.33;1694977;83;20162;-56
2021/12/15 09:20:43;;;;;;;42.15;20.55;;;;;;;5.44;89.65;100394.91;1679587;83;21036;-54
2021/12/15 09:23:14;;;;;;;50.83;21.37;;;;;;;5.45;89.82;100394.03;1684459;83;21025;-56
2021/12/15 09:25:41;;;;;;;45.65;20.95;;;;;;;5.46;89.82;100396.61;1690767;83;21116;-56
2021/12/15 09:28:07;;;;;;;51.98;21.00;;;;;;;5.44;90.06;100394.91;1698860;82;21015;-56
2021/12/15 09:30:43;;;;;;;46.55;21.93;;;;;;;5.42;90.10;100397.98;1691263;82;21006;-56
2021/12/15 09:33:04;;;;;;;51.58;22.73;;;;;;;5.39;90.04;100396.30;1699118;82;21616;-55
2021/12/15 09:35:31;;;;;;;46.92;21.50;;;;;;;5.35;90.19;100395.48;1704277;81;21493;-56
2021/12/15 09:37:57;;;;;;;50.38;23.57;;;;;;;5.32;90.38;100390.31;1692112;82;21014;-56
2021/12/15 09:40:24;;;;;;;45.08;23.22;;;;;;;5.31;90.43;100387.30;1699415;81;20976;-58
2021/12/15 09:42:50;;;;;;;43.98;21.07;;;;;;;5.35;90.36;100391.57;1701174;81;21058;-54
2021/12/15 09:45:27;;;;;;;40.15;19.98;;;;;;;5.33;90.40;100385.52;1700980;82;21022;-56
2021/12/15 10:07:03;;;;;;;41.15;20.90;;;;;;;5.42;90.86;100361.04;1693164;82;21079;-53
2021/12/15 10:19:53;;;;;;;59.83;24.77;;;;;;;5.58;90.65;100355.09;1690376;82;21052;-53
2021/12/15 10:22:40;;;;;;;68.42;25.90;;;;;;;5.65;90.74;100354.55;1699029;83;21064;-54
2021/12/15 10:25:17;;;;;;;90.35;32.80;;;;;;;5.70;90.58;100357.48;1696735;82;21492;-53
2021/12/15 10:27:53;;;;;;;109.42;36.08;;;;;;;5.75;90.33;100357.41;1695152;81;21564;-54
2021/12/15 10:30:34;;;;;;;96.40;35.43;;;;;;;5.73;90.28;100348.30;1695330;82;21518;-54
2021/12/15 10:33:08;;;;;;;90.97;35.17;;;;;;;5.72;90.38;100349.18;1698105;82;21719;-51
2021/12/15 10:35:42;;;;;;;91.82;33.98;;;;;;;5.74;90.45;100347.39;1701240;82;21531;-56
2021/12/15 10:38:30;;;;;;;88.12;33.18;;;;;;;5.78;90.49;100349.51;1703966;82;21114;-50
2021/12/15 10:41:18;;;;;;;86.20;31.80;;;;;;;5.83;90.41;100347.67;1695219;82;22118;-54
2021/12/15 10:43:57;;;;;;;68.78;28.52;;;;;;;5.91;90.29;100351.02;1700222;82;21110;-51
2021/12/15 10:46:50;;;;;;;57.35;25.27;;;;;;;5.94;90.16;100346.17;1700604;82;21011;-51
2021/12/15 10:49:21;;;;;;;56.90;26.57;;;;;;;5.95;90.00;100339.65;1694962;82;20996;-47
2021/12/15 10:51:55;;;;;;;62.98;27.13;;;;;;;5.99;89.95;100331.77;1698415;81;21149;-48
2021/12/15 10:54:27;;;;;;;53.30;25.50;;;;;;;6.04;89.86;100325.55;1692945;82;21074;-52
2021/12/15 10:57:23;;;;;;;53.63;24.43;;;;;;;6.04;89.69;100325.98;1699689;81;21022;-48
2021/12/15 10:59:54;;;;;;;49.85;22.80;;;;;;;6.03;89.79;100341.25;1702712;82;21583;-53
2021/12/15 11:02:27;;;;;;;48.13;23.07;;;;;;;6.04;89.63;100339.92;1694004;82;21054;-46
2021/12/15 11:05:10;;;;;;;47.50;22.37;;;;;;;6.08;89.59;100335.04;1693739;82;21063;-52
2021/12/15 11:07:44;;;;;;;46.92;22.55;;;;;;;6.07;89.54;100335.06;1699224;82;21563;-52
2021/12/15 11:10:28;;;;;;;48.25;22.85;;;;;;;6.00;89.35;100325.18;1699268;82;21036;-53
2021/12/15 11:13:02;;;;;;;48.02;23.87;;;;;;;6.00;89.39;100326.48;1703233;82;21019;-49
2021/12/15 11:15:45;;;;;;;42.10;21.65;;;;;;;6.06;89.42;100319.00;1695942;82;21054;-49
2021/12/15 11:18:24;;;;;;;48.98;21.70;;;;;;;6.07;89.37;100323.31;1707068;82;21011;-53
2021/12/15 11:20:55;;;;;;;47.10;22.70;;;;;;;6.07;89.13;100320.70;1701419;82;21033;-49
2021/12/15 11:23:24;;;;;;;43.92;22.55;;;;;;;6.09;89.01;100315.88;1702859;83;21034;-50
2021/12/15 11:25:58;;;;;;;38.83;19.37;;;;;;;6.07;89.02;100321.55;1696388;83;21032;-51
2021/12/15 11:28:41;;;;;;;42.43;20.17;;;;;;;6.06;88.98;100308.10;1698811;82;21600;-49
2021/12/15 11:31:18;;;;;;;39.58;20.55;;;;;;;6.10;88.83;100313.67;1691466;82;21056;-53
2021/12/15 11:33:55;;;;;;;41.83;21.12;;;;;;;6.12;88.82;100318.87;1693342;83;21079;-50
2021/12/15 11:36:26;;;;;;;40.30;20.92;;;;;;;6.13;88.79;100320.56;1699822;82;21029;-49
2021/12/15 11:39:13;;;;;;;47.75;21.33;;;;;;;6.15;88.66;100326.65;1692232;83;21040;-48
2021/12/15 11:41:45;;;;;;;;;;;;;;;6.11;88.68;100325.84;1693688;82;21078;-46
2021/12/15 11:44:15;;;;;;;48.65;22.10;;;;;;;6.09;88.76;100326.75;1686833;83;20134;-51
2021/12/15 11:47:00;;;;;;;41.90;19.00;;;;;;;6.13;88.88;100327.09;1697067;82;21107;-51
2021/12/15 11:49:31;;;;;;;40.05;19.85;;;;;;;6.15;88.89;100317.05;1706008;81;21645;-57
2021/12/15 11:52:08;;;;;;;38.08;20.72;;;;;;;6.22;88.73;100319.52;1688071;83;21010;-56
2021/12/15 11:54:48;;;;;;;43.15;20.23;;;;;;;6.25;88.82;100328.16;1705497;82;21051;-52
2021/12/15 11:57:25;;;;;;;43.80;20.90;;;;;;;6.23;88.59;100326.03;1690645;82;21070;-50
2021/12/15 11:59:56;;;;;;;38.78;21.55;;;;;;;6.25;88.52;100326.00;1695217;82;21106;-50
2021/12/15 12:02:29;;;;;;;43.05;21.27;;;;;;;6.28;88.49;100325.95;1702064;81;21616;-47
2021/12/15 12:04:59;;;;;;;41.30;21.95;;;;;;;6.33;88.62;100326.26;1688081;82;21533;-49
2021/12/15 12:07:32;;;;;;;40.03;20.40;;;;;;;6.37;88.53;100326.17;1704959;82;21035;-49
2021/12/15 12:10:19;;;;;;;41.10;20.62;;;;;;;6.44;88.52;100332.56;1696976;82;21029;-49
2021/12/15 12:13:02;;;;;;;46.90;21.90;;;;;;;6.45;88.37;100330.80;1700425;82;21547;-53
2021/12/15 12:15:27;;;;;;;40.90;20.40;;;;;;;6.48;88.48;100335.52;1692188;82;21067;-53
2021/12/15 12:18:01;;;;;;;40.95;19.98;;;;;;;6.45;88.24;100329.04;1706809;82;21493;-52
2021/12/15 12:20:35;;;;;;;43.75;20.45;;;;;;;6.47;88.16;100333.78;1703574;82;21076;-50
2021/12/15 12:23:06;;;;;;;40.08;19.82;;;;;;;6.46;88.12;100339.06;1704331;82;21036;-53
2021/12/15 12:25:40;;;;;;;38.65;19.40;;;;;;;6.48;88.14;100338.13;1701642;82;21131;-52
2021/12/15 12:28:10;;;;;;;42.25;21.90;;;;;;;6.46;88.11;100329.47;1693046;83;21016;-51
2021/12/15 12:30:41;;;;;;;50.52;25.70;;;;;;;6.49;88.20;100328.52;1708707;81;21493;-54
2021/12/15 12:33:10;;;;;;;45.73;24.67;;;;;;;6.48;88.23;100329.44;1706989;81;20988;-50
2021/12/15 12:35:41;;;;;;;45.95;22.10;;;;;;;6.48;88.08;100331.59;1706482;82;21913;-50
2021/12/15 12:38:21;;;;;;;46.90;24.10;;;;;;;6.41;88.29;100332.62;1709669;82;21044;-56
2021/12/15 12:40:58;;;;;;;35.70;19.55;;;;;;;6.43;88.27;100339.13;1708738;81;21033;-54
2021/12/15 12:43:37;;;;;;;47.70;24.35;;;;;;;6.42;88.41;100332.16;1687593;82;21701;-50
2021/12/15 12:46:14;;;;;;;39.98;21.80;;;;;;;6.44;88.04;100331.25;1697649;82;20992;-49